Decoded Metar for VOMM (MADRAS in INDIA) (IATA:MAA) | Meteo·Mobile Aviation Weather
aviador You're here:

VOMM Decoded Metar

MADRAS in INDIA
Report Time2018-12-10 15:30:00
UTC Time2018-12-10 15:54:58
Flight Rules ifr IFR
Wind010° at 03 kt
W.Decomp.*RWY 07: 1.6 kt HW 2.5 kt LCW
RWY 30: 0.9 kt HW 2.9 kt RCW
W.Rank010° ranks 28
Current wind is below 010° avg. (5.3)
Visibility3500 m
Phenomena:Haze
Clouds:Scattered 018 Hf
Expected CloudBase > 2,000 ft AGL from Temp-Dew spread
CeilingNone
Temp26°C (ISA +11)
Dew Point21°C (74% RH)
QNH1013 hPa
Density Alt1,663 ft
Elevation52 ft
Report Wrong Elevation
Raw Report
METAR VOMM 101530Z 01003KT 3500 HZ SCT018 26/21 Q1013 NOSIG=

Extra information for VOMM:More info

Metar Taf Metar & Taf Last 4 Metars F.Rules Stats Wind Profile Meteogram Temp Stats Airport Information Weather charts Add Link Nearby VenuesMetar ALERT Operation Metar Decoded Social comments